sensor_id;sensor_type;location;lat;lon;timestamp;P1;durP1;ratioP1;P2;durP2;ratioP2
39898;SDS011;25571;47.876;10.642;2023-05-24T00:00:40;3.65;;;3.35;;
39898;SDS011;25571;47.876;10.642;2023-05-24T00:03:06;3.65;;;3.28;;
39898;SDS011;25571;47.876;10.642;2023-05-24T00:05:32;3.38;;;3.00;;
39898;SDS011;25571;47.876;10.642;2023-05-24T00:10:27;5.53;;;3.63;;
39898;SDS011;25571;47.876;10.642;2023-05-24T00:12:53;4.03;;;3.58;;
39898;SDS011;25571;47.876;10.642;2023-05-24T00:15:18;3.42;;;3.08;;
39898;SDS011;25571;47.876;10.642;2023-05-24T00:17:44;3.97;;;3.58;;
39898;SDS011;25571;47.876;10.642;2023-05-24T00:20:10;3.28;;;2.97;;
39898;SDS011;25571;47.876;10.642;2023-05-24T00:22:37;4.60;;;3.33;;
39898;SDS011;25571;47.876;10.642;2023-05-24T00:25:03;3.55;;;3.10;;
39898;SDS011;25571;47.876;10.642;2023-05-24T00:27:29;6.40;;;3.22;;
39898;SDS011;25571;47.876;10.642;2023-05-24T00:29:55;3.40;;;3.10;;
39898;SDS011;25571;47.876;10.642;2023-05-24T00:32:21;3.55;;;3.15;;
39898;SDS011;25571;47.876;10.642;2023-05-24T00:34:47;3.58;;;3.28;;
39898;SDS011;25571;47.876;10.642;2023-05-24T00:37:12;3.67;;;3.35;;
39898;SDS011;25571;47.876;10.642;2023-05-24T00:39:39;5.63;;;3.80;;
39898;SDS011;25571;47.876;10.642;2023-05-24T00:42:05;3.03;;;2.72;;
39898;SDS011;25571;47.876;10.642;2023-05-24T00:44:31;3.58;;;3.28;;
39898;SDS011;25571;47.876;10.642;2023-05-24T00:46:57;3.85;;;3.45;;
39898;SDS011;25571;47.876;10.642;2023-05-24T00:49:23;4.15;;;3.72;;
39898;SDS011;25571;47.876;10.642;2023-05-24T00:51:49;3.67;;;3.28;;
39898;SDS011;25571;47.876;10.642;2023-05-24T00:54:16;5.50;;;3.88;;
39898;SDS011;25571;47.876;10.642;2023-05-24T00:56:42;3.85;;;3.50;;
39898;SDS011;25571;47.876;10.642;2023-05-24T00:59:08;2.97;;;2.67;;
39898;SDS011;25571;47.876;10.642;2023-05-24T01:01:34;3.33;;;3.03;;
39898;SDS011;25571;47.876;10.642;2023-05-24T01:04:01;3.30;;;2.75;;
39898;SDS011;25571;47.876;10.642;2023-05-24T01:06:27;3.75;;;3.30;;
39898;SDS011;25571;47.876;10.642;2023-05-24T01:08:57;3.90;;;3.13;;
39898;SDS011;25571;47.876;10.642;2023-05-24T01:14:27;5.45;;;3.03;;
39898;SDS011;25571;47.876;10.642;2023-05-24T01:17:08;3.03;;;2.72;;
39898;SDS011;25571;47.876;10.642;2023-05-24T01:25:37;4.95;;;2.92;;
39898;SDS011;25571;47.876;10.642;2023-05-24T01:28:24;3.25;;;2.95;;
39898;SDS011;25571;47.876;10.642;2023-05-24T01:30:51;3.05;;;2.70;;
39898;SDS011;25571;47.876;10.642;2023-05-24T01:33:16;3.10;;;2.80;;
39898;SDS011;25571;47.876;10.642;2023-05-24T01:35:42;4.10;;;3.35;;
39898;SDS011;25571;47.876;10.642;2023-05-24T01:38:08;2.90;;;2.67;;
39898;SDS011;25571;47.876;10.642;2023-05-24T01:40:38;3.75;;;3.40;;
39898;SDS011;25571;47.876;10.642;2023-05-24T01:48:37;3.90;;;3.47;;
39898;SDS011;25571;47.876;10.642;2023-05-24T01:51:21;3.55;;;3.25;;
39898;SDS011;25571;47.876;10.642;2023-05-24T01:53:48;3.40;;;2.88;;
39898;SDS011;25571;47.876;10.642;2023-05-24T01:56:16;3.20;;;2.90;;
39898;SDS011;25571;47.876;10.642;2023-05-24T01:58:44;3.58;;;3.28;;
39898;SDS011;25571;47.876;10.642;2023-05-24T02:01:10;5.10;;;3.50;;
39898;SDS011;25571;47.876;10.642;2023-05-24T02:03:38;3.88;;;3.50;;
39898;SDS011;25571;47.876;10.642;2023-05-24T02:06:04;3.17;;;2.88;;
39898;SDS011;25571;47.876;10.642;2023-05-24T02:08:30;2.83;;;2.60;;
39898;SDS011;25571;47.876;10.642;2023-05-24T02:10:56;3.30;;;3.00;;
39898;SDS011;25571;47.876;10.642;2023-05-24T02:13:21;3.30;;;3.00;;
39898;SDS011;25571;47.876;10.642;2023-05-24T02:15:47;4.22;;;3.15;;
39898;SDS011;25571;47.876;10.642;2023-05-24T02:18:13;3.35;;;3.05;;
39898;SDS011;25571;47.876;10.642;2023-05-24T02:20:42;5.07;;;3.72;;
39898;SDS011;25571;47.876;10.642;2023-05-24T02:23:08;3.88;;;3.25;;
39898;SDS011;25571;47.876;10.642;2023-05-24T02:25:34;4.43;;;3.22;;
39898;SDS011;25571;47.876;10.642;2023-05-24T02:27:59;4.63;;;3.65;;
39898;SDS011;25571;47.876;10.642;2023-05-24T02:30:25;3.05;;;2.78;;
39898;SDS011;25571;47.876;10.642;2023-05-24T02:32:51;3.95;;;3.55;;
39898;SDS011;25571;47.876;10.642;2023-05-24T02:35:17;3.42;;;2.95;;
39898;SDS011;25571;47.876;10.642;2023-05-24T02:37:43;3.08;;;2.78;;
39898;SDS011;25571;47.876;10.642;2023-05-24T02:40:09;3.55;;;3.25;;
39898;SDS011;25571;47.876;10.642;2023-05-24T02:42:36;3.90;;;3.30;;
39898;SDS011;25571;47.876;10.642;2023-05-24T02:45:01;3.15;;;2.85;;
39898;SDS011;25571;47.876;10.642;2023-05-24T02:47:27;3.75;;;2.80;;
39898;SDS011;25571;47.876;10.642;2023-05-24T02:49:53;3.05;;;2.75;;
39898;SDS011;25571;47.876;10.642;2023-05-24T02:52:19;3.35;;;3.05;;
39898;SDS011;25571;47.876;10.642;2023-05-24T02:54:48;3.25;;;2.92;;
39898;SDS011;25571;47.876;10.642;2023-05-24T02:57:14;3.95;;;3.15;;
39898;SDS011;25571;47.876;10.642;2023-05-24T02:59:40;3.67;;;3.38;;
39898;SDS011;25571;47.876;10.642;2023-05-24T03:02:06;3.17;;;2.88;;
39898;SDS011;25571;47.876;10.642;2023-05-24T03:04:32;3.85;;;3.50;;
39898;SDS011;25571;47.876;10.642;2023-05-24T03:06:57;3.95;;;3.50;;
39898;SDS011;25571;47.876;10.642;2023-05-24T03:09:23;4.38;;;3.97;;
39898;SDS011;25571;47.876;10.642;2023-05-24T03:11:48;4.03;;;3.45;;
39898;SDS011;25571;47.876;10.642;2023-05-24T03:14:15;4.85;;;4.10;;
39898;SDS011;25571;47.876;10.642;2023-05-24T03:16:41;3.30;;;3.00;;
39898;SDS011;25571;47.876;10.642;2023-05-24T03:19:07;3.90;;;3.50;;
39898;SDS011;25571;47.876;10.642;2023-05-24T03:21:32;4.10;;;3.65;;
39898;SDS011;25571;47.876;10.642;2023-05-24T03:23:58;4.97;;;3.70;;
39898;SDS011;25571;47.876;10.642;2023-05-24T03:26:23;4.30;;;3.90;;
39898;SDS011;25571;47.876;10.642;2023-05-24T03:28:50;5.30;;;4.38;;
39898;SDS011;25571;47.876;10.642;2023-05-24T03:31:18;5.32;;;4.15;;
39898;SDS011;25571;47.876;10.642;2023-05-24T03:33:44;3.97;;;3.67;;
39898;SDS011;25571;47.876;10.642;2023-05-24T03:36:10;5.45;;;4.95;;
39898;SDS011;25571;47.876;10.642;2023-05-24T03:38:35;5.10;;;4.60;;
39898;SDS011;25571;47.876;10.642;2023-05-24T03:41:01;5.65;;;5.10;;
39898;SDS011;25571;47.876;10.642;2023-05-24T03:43:27;5.70;;;5.10;;
39898;SDS011;25571;47.876;10.642;2023-05-24T03:45:53;5.07;;;4.57;;
39898;SDS011;25571;47.876;10.642;2023-05-24T03:48:18;5.25;;;4.75;;
39898;SDS011;25571;47.876;10.642;2023-05-24T03:50:47;5.38;;;4.78;;
39898;SDS011;25571;47.876;10.642;2023-05-24T03:53:13;6.00;;;5.40;;
39898;SDS011;25571;47.876;10.642;2023-05-24T03:55:38;6.35;;;5.75;;
39898;SDS011;25571;47.876;10.642;2023-05-24T03:58:04;5.30;;;4.80;;
39898;SDS011;25571;47.876;10.642;2023-05-24T04:00:30;5.90;;;5.30;;
39898;SDS011;25571;47.876;10.642;2023-05-24T04:02:55;6.53;;;4.43;;
39898;SDS011;25571;47.876;10.642;2023-05-24T04:05:21;5.57;;;5.07;;
39898;SDS011;25571;47.876;10.642;2023-05-24T04:07:51;5.95;;;5.45;;
39898;SDS011;25571;47.876;10.642;2023-05-24T04:10:16;5.63;;;5.10;;
39898;SDS011;25571;47.876;10.642;2023-05-24T04:12:43;6.15;;;5.05;;
39898;SDS011;25571;47.876;10.642;2023-05-24T04:15:09;6.97;;;6.18;;
39898;SDS011;25571;47.876;10.642;2023-05-24T04:17:38;6.07;;;5.53;;
39898;SDS011;25571;47.876;10.642;2023-05-24T04:20:06;6.80;;;6.10;;
39898;SDS011;25571;47.876;10.642;2023-05-24T04:22:33;6.22;;;5.72;;
39898;SDS011;25571;47.876;10.642;2023-05-24T04:25:00;7.05;;;6.35;;
39898;SDS011;25571;47.876;10.642;2023-05-24T04:27:26;7.97;;;7.03;;
39898;SDS011;25571;47.876;10.642;2023-05-24T04:29:52;7.18;;;6.47;;
39898;SDS011;25571;47.876;10.642;2023-05-24T04:32:18;8.70;;;6.00;;
39898;SDS011;25571;47.876;10.642;2023-05-24T04:34:44;6.97;;;6.28;;
39898;SDS011;25571;47.876;10.642;2023-05-24T04:37:10;6.95;;;6.22;;
39898;SDS011;25571;47.876;10.642;2023-05-24T04:39:37;7.10;;;6.13;;
39898;SDS011;25571;47.876;10.642;2023-05-24T04:42:05;7.45;;;6.13;;
39898;SDS011;25571;47.876;10.642;2023-05-24T04:44:31;5.80;;;5.20;;
39898;SDS011;25571;47.876;10.642;2023-05-24T04:46:56;6.35;;;5.57;;
39898;SDS011;25571;47.876;10.642;2023-05-24T04:49:22;7.07;;;5.35;;
39898;SDS011;25571;47.876;10.642;2023-05-24T04:51:48;6.18;;;5.53;;
39898;SDS011;25571;47.876;10.642;2023-05-24T04:54:13;7.03;;;5.70;;
39898;SDS011;25571;47.876;10.642;2023-05-24T04:56:40;6.55;;;5.07;;
39898;SDS011;25571;47.876;10.642;2023-05-24T04:59:06;8.30;;;5.35;;
39898;SDS011;25571;47.876;10.642;2023-05-24T05:01:32;6.28;;;5.28;;
39898;SDS011;25571;47.876;10.642;2023-05-24T05:03:58;7.97;;;5.90;;
39898;SDS011;25571;47.876;10.642;2023-05-24T05:06:24;6.55;;;5.53;;
39898;SDS011;25571;47.876;10.642;2023-05-24T05:08:50;6.40;;;4.97;;
39898;SDS011;25571;47.876;10.642;2023-05-24T05:11:16;6.40;;;4.80;;
39898;SDS011;25571;47.876;10.642;2023-05-24T05:13:43;6.93;;;4.65;;
39898;SDS011;25571;47.876;10.642;2023-05-24T05:16:09;6.53;;;5.18;;
39898;SDS011;25571;47.876;10.642;2023-05-24T05:18:34;6.28;;;4.55;;
39898;SDS011;25571;47.876;10.642;2023-05-24T05:21:01;6.72;;;4.97;;
39898;SDS011;25571;47.876;10.642;2023-05-24T05:23:28;5.55;;;4.47;;
39898;SDS011;25571;47.876;10.642;2023-05-24T05:25:54;6.38;;;4.97;;
39898;SDS011;25571;47.876;10.642;2023-05-24T05:28:19;9.00;;;4.80;;
39898;SDS011;25571;47.876;10.642;2023-05-24T05:30:45;6.78;;;5.00;;
39898;SDS011;25571;47.876;10.642;2023-05-24T05:33:11;6.45;;;4.40;;
39898;SDS011;25571;47.876;10.642;2023-05-24T05:35:36;6.32;;;4.90;;
39898;SDS011;25571;47.876;10.642;2023-05-24T05:38:02;7.97;;;4.80;;
39898;SDS011;25571;47.876;10.642;2023-05-24T05:40:27;8.98;;;5.15;;
39898;SDS011;25571;47.876;10.642;2023-05-24T05:42:53;8.05;;;5.38;;
39898;SDS011;25571;47.876;10.642;2023-05-24T05:45:19;6.38;;;4.82;;
39898;SDS011;25571;47.876;10.642;2023-05-24T05:47:45;10.27;;;4.88;;
39898;SDS011;25571;47.876;10.642;2023-05-24T05:50:10;5.05;;;4.38;;
39898;SDS011;25571;47.876;10.642;2023-05-24T05:52:36;6.18;;;4.85;;
39898;SDS011;25571;47.876;10.642;2023-05-24T05:55:01;5.97;;;4.80;;
39898;SDS011;25571;47.876;10.642;2023-05-24T05:57:27;6.03;;;4.95;;
39898;SDS011;25571;47.876;10.642;2023-05-24T05:59:53;11.25;;;5.47;;
39898;SDS011;25571;47.876;10.642;2023-05-24T06:02:18;6.22;;;5.03;;
39898;SDS011;25571;47.876;10.642;2023-05-24T06:04:46;7.20;;;5.40;;
39898;SDS011;25571;47.876;10.642;2023-05-24T06:07:12;6.60;;;4.80;;
39898;SDS011;25571;47.876;10.642;2023-05-24T06:09:38;5.65;;;4.80;;
39898;SDS011;25571;47.876;10.642;2023-05-24T06:12:03;5.40;;;4.15;;
39898;SDS011;25571;47.876;10.642;2023-05-24T06:14:29;6.32;;;4.95;;
39898;SDS011;25571;47.876;10.642;2023-05-24T06:16:56;5.95;;;4.43;;
39898;SDS011;25571;47.876;10.642;2023-05-24T06:19:22;5.70;;;4.60;;
39898;SDS011;25571;47.876;10.642;2023-05-24T06:21:48;5.47;;;4.28;;
39898;SDS011;25571;47.876;10.642;2023-05-24T06:24:15;7.15;;;4.50;;
39898;SDS011;25571;47.876;10.642;2023-05-24T06:26:48;7.22;;;4.22;;
39898;SDS011;25571;47.876;10.642;2023-05-24T06:29:15;6.93;;;4.85;;
39898;SDS011;25571;47.876;10.642;2023-05-24T06:31:44;7.28;;;4.82;;
39898;SDS011;25571;47.876;10.642;2023-05-24T06:34:11;7.15;;;4.45;;
39898;SDS011;25571;47.876;10.642;2023-05-24T06:36:37;5.80;;;4.20;;
39898;SDS011;25571;47.876;10.642;2023-05-24T06:39:06;5.75;;;3.90;;
39898;SDS011;25571;47.876;10.642;2023-05-24T06:41:36;6.90;;;5.38;;
39898;SDS011;25571;47.876;10.642;2023-05-24T06:44:03;7.78;;;4.78;;
39898;SDS011;25571;47.876;10.642;2023-05-24T06:46:28;6.90;;;4.28;;
39898;SDS011;25571;47.876;10.642;2023-05-24T06:48:54;5.90;;;4.18;;
39898;SDS011;25571;47.876;10.642;2023-05-24T06:51:20;5.75;;;4.20;;
39898;SDS011;25571;47.876;10.642;2023-05-24T06:53:45;6.70;;;4.72;;
39898;SDS011;25571;47.876;10.642;2023-05-24T06:56:11;4.90;;;4.20;;
39898;SDS011;25571;47.876;10.642;2023-05-24T06:58:37;7.07;;;4.10;;
39898;SDS011;25571;47.876;10.642;2023-05-24T07:01:02;5.70;;;4.30;;
39898;SDS011;25571;47.876;10.642;2023-05-24T07:03:29;9.30;;;5.18;;
39898;SDS011;25571;47.876;10.642;2023-05-24T07:05:55;7.50;;;4.88;;
39898;SDS011;25571;47.876;10.642;2023-05-24T07:08:21;5.85;;;4.55;;
39898;SDS011;25571;47.876;10.642;2023-05-24T07:10:48;8.48;;;4.38;;
39898;SDS011;25571;47.876;10.642;2023-05-24T07:13:14;6.55;;;4.50;;
39898;SDS011;25571;47.876;10.642;2023-05-24T07:15:42;5.43;;;4.30;;
39898;SDS011;25571;47.876;10.642;2023-05-24T07:18:08;5.60;;;4.65;;
39898;SDS011;25571;47.876;10.642;2023-05-24T07:20:33;5.70;;;4.90;;
39898;SDS011;25571;47.876;10.642;2023-05-24T07:22:59;10.50;;;7.93;;
39898;SDS011;25571;47.876;10.642;2023-05-24T07:25:26;8.77;;;7.60;;
39898;SDS011;25571;47.876;10.642;2023-05-24T07:27:52;12.25;;;8.27;;
39898;SDS011;25571;47.876;10.642;2023-05-24T07:30:17;12.25;;;8.88;;
39898;SDS011;25571;47.876;10.642;2023-05-24T07:32:43;16.23;;;12.00;;
39898;SDS011;25571;47.876;10.642;2023-05-24T07:35:09;18.33;;;13.30;;
39898;SDS011;25571;47.876;10.642;2023-05-24T07:37:40;10.40;;;8.02;;
39898;SDS011;25571;47.876;10.642;2023-05-24T07:40:06;27.73;;;19.75;;
39898;SDS011;25571;47.876;10.642;2023-05-24T07:42:35;25.63;;;18.73;;
39898;SDS011;25571;47.876;10.642;2023-05-24T07:45:01;23.35;;;18.35;;
39898;SDS011;25571;47.876;10.642;2023-05-24T07:47:27;14.93;;;11.80;;
39898;SDS011;25571;47.876;10.642;2023-05-24T07:49:53;9.27;;;7.75;;
39898;SDS011;25571;47.876;10.642;2023-05-24T07:52:18;11.02;;;8.57;;
39898;SDS011;25571;47.876;10.642;2023-05-24T07:54:44;11.70;;;8.82;;
39898;SDS011;25571;47.876;10.642;2023-05-24T07:57:10;10.63;;;8.05;;
39898;SDS011;25571;47.876;10.642;2023-05-24T07:59:36;10.05;;;7.57;;
39898;SDS011;25571;47.876;10.642;2023-05-24T08:02:02;8.77;;;7.43;;
39898;SDS011;25571;47.876;10.642;2023-05-24T08:04:29;8.75;;;7.93;;
39898;SDS011;25571;47.876;10.642;2023-05-24T08:06:57;7.57;;;6.65;;
39898;SDS011;25571;47.876;10.642;2023-05-24T08:09:25;6.82;;;6.20;;
39898;SDS011;25571;47.876;10.642;2023-05-24T08:11:53;7.10;;;5.77;;
39898;SDS011;25571;47.876;10.642;2023-05-24T08:14:19;7.07;;;5.32;;
39898;SDS011;25571;47.876;10.642;2023-05-24T08:16:45;4.95;;;4.43;;
39898;SDS011;25571;47.876;10.642;2023-05-24T08:19:10;5.90;;;4.95;;
39898;SDS011;25571;47.876;10.642;2023-05-24T08:21:36;6.55;;;4.95;;
39898;SDS011;25571;47.876;10.642;2023-05-24T08:24:02;7.72;;;5.13;;
39898;SDS011;25571;47.876;10.642;2023-05-24T08:26:27;6.43;;;5.05;;
39898;SDS011;25571;47.876;10.642;2023-05-24T08:28:53;6.70;;;4.90;;
39898;SDS011;25571;47.876;10.642;2023-05-24T08:31:19;7.90;;;6.13;;
39898;SDS011;25571;47.876;10.642;2023-05-24T08:33:45;6.80;;;5.88;;
39898;SDS011;25571;47.876;10.642;2023-05-24T08:36:14;11.10;;;5.97;;
39898;SDS011;25571;47.876;10.642;2023-05-24T08:38:40;9.38;;;5.43;;
39898;SDS011;25571;47.876;10.642;2023-05-24T08:41:06;7.45;;;5.35;;
39898;SDS011;25571;47.876;10.642;2023-05-24T08:43:32;5.90;;;4.70;;
39898;SDS011;25571;47.876;10.642;2023-05-24T08:45:58;7.68;;;5.60;;
39898;SDS011;25571;47.876;10.642;2023-05-24T08:48:25;8.40;;;5.80;;
39898;SDS011;25571;47.876;10.642;2023-05-24T08:50:53;7.18;;;5.05;;
39898;SDS011;25571;47.876;10.642;2023-05-24T08:53:19;10.05;;;5.68;;
39898;SDS011;25571;47.876;10.642;2023-05-24T08:58:13;7.43;;;5.63;;
39898;SDS011;25571;47.876;10.642;2023-05-24T09:00:40;7.82;;;5.53;;
39898;SDS011;25571;47.876;10.642;2023-05-24T09:03:06;7.57;;;5.80;;
39898;SDS011;25571;47.876;10.642;2023-05-24T09:05:33;8.95;;;5.38;;
39898;SDS011;25571;47.876;10.642;2023-05-24T09:07:59;7.43;;;5.88;;
39898;SDS011;25571;47.876;10.642;2023-05-24T09:10:26;8.93;;;5.50;;
39898;SDS011;25571;47.876;10.642;2023-05-24T09:12:54;7.78;;;7.07;;
39898;SDS011;25571;47.876;10.642;2023-05-24T09:15:21;8.95;;;5.88;;
39898;SDS011;25571;47.876;10.642;2023-05-24T09:17:47;8.93;;;5.30;;
39898;SDS011;25571;47.876;10.642;2023-05-24T09:20:13;8.05;;;5.82;;
39898;SDS011;25571;47.876;10.642;2023-05-24T09:22:41;7.55;;;5.70;;
39898;SDS011;25571;47.876;10.642;2023-05-24T09:25:08;7.55;;;5.65;;
39898;SDS011;25571;47.876;10.642;2023-05-24T09:27:36;8.23;;;5.45;;
39898;SDS011;25571;47.876;10.642;2023-05-24T09:30:02;7.10;;;5.22;;
39898;SDS011;25571;47.876;10.642;2023-05-24T09:32:34;7.85;;;5.20;;
39898;SDS011;25571;47.876;10.642;2023-05-24T09:34:59;7.50;;;5.57;;
39898;SDS011;25571;47.876;10.642;2023-05-24T09:37:25;8.32;;;5.90;;
39898;SDS011;25571;47.876;10.642;2023-05-24T09:39:53;6.68;;;5.32;;
39898;SDS011;25571;47.876;10.642;2023-05-24T09:42:20;8.80;;;5.18;;
39898;SDS011;25571;47.876;10.642;2023-05-24T09:47:30;8.18;;;5.38;;
39898;SDS011;25571;47.876;10.642;2023-05-24T09:49:57;7.43;;;5.15;;
39898;SDS011;25571;47.876;10.642;2023-05-24T09:52:23;6.95;;;4.95;;
39898;SDS011;25571;47.876;10.642;2023-05-24T09:54:49;5.30;;;4.68;;
39898;SDS011;25571;47.876;10.642;2023-05-24T09:57:15;7.50;;;4.80;;
39898;SDS011;25571;47.876;10.642;2023-05-24T09:59:41;6.40;;;4.72;;
39898;SDS011;25571;47.876;10.642;2023-05-24T10:02:11;5.65;;;4.50;;
39898;SDS011;25571;47.876;10.642;2023-05-24T10:04:39;7.03;;;5.30;;
39898;SDS011;25571;47.876;10.642;2023-05-24T10:07:06;6.75;;;5.15;;
39898;SDS011;25571;47.876;10.642;2023-05-24T10:09:32;6.13;;;4.45;;
39898;SDS011;25571;47.876;10.642;2023-05-24T10:12:03;5.93;;;4.78;;
39898;SDS011;25571;47.876;10.642;2023-05-24T10:14:36;8.43;;;5.75;;
39898;SDS011;25571;47.876;10.642;2023-05-24T10:17:06;7.25;;;4.93;;
39898;SDS011;25571;47.876;10.642;2023-05-24T10:21:58;6.70;;;4.82;;
39898;SDS011;25571;47.876;10.642;2023-05-24T10:24:28;6.70;;;4.68;;
39898;SDS011;25571;47.876;10.642;2023-05-24T10:27:04;7.43;;;4.60;;
39898;SDS011;25571;47.876;10.642;2023-05-24T10:29:46;7.07;;;4.60;;
39898;SDS011;25571;47.876;10.642;2023-05-24T10:32:25;6.38;;;4.15;;
39898;SDS011;25571;47.876;10.642;2023-05-24T10:34:55;8.07;;;4.45;;
39898;SDS011;25571;47.876;10.642;2023-05-24T10:37:23;8.83;;;4.07;;
39898;SDS011;25571;47.876;10.642;2023-05-24T10:39:50;6.85;;;4.78;;
39898;SDS011;25571;47.876;10.642;2023-05-24T10:42:16;7.97;;;5.00;;
39898;SDS011;25571;47.876;10.642;2023-05-24T10:44:42;8.43;;;5.45;;
39898;SDS011;25571;47.876;10.642;2023-05-24T10:47:12;8.38;;;5.50;;
39898;SDS011;25571;47.876;10.642;2023-05-24T10:49:46;7.00;;;4.53;;
39898;SDS011;25571;47.876;10.642;2023-05-24T10:52:15;8.32;;;4.53;;
39898;SDS011;25571;47.876;10.642;2023-05-24T10:54:51;8.90;;;4.90;;
39898;SDS011;25571;47.876;10.642;2023-05-24T10:57:29;7.88;;;4.50;;
39898;SDS011;25571;47.876;10.642;2023-05-24T10:59:56;6.15;;;5.15;;
39898;SDS011;25571;47.876;10.642;2023-05-24T11:02:22;10.38;;;6.15;;
39898;SDS011;25571;47.876;10.642;2023-05-24T11:04:52;8.15;;;5.47;;
39898;SDS011;25571;47.876;10.642;2023-05-24T11:07:17;9.23;;;6.15;;
39898;SDS011;25571;47.876;10.642;2023-05-24T11:09:45;7.40;;;5.85;;
39898;SDS011;25571;47.876;10.642;2023-05-24T11:12:17;8.30;;;5.00;;
39898;SDS011;25571;47.876;10.642;2023-05-24T11:14:50;6.65;;;5.40;;
39898;SDS011;25571;47.876;10.642;2023-05-24T11:17:20;8.93;;;5.43;;
39898;SDS011;25571;47.876;10.642;2023-05-24T11:19:50;8.32;;;5.32;;
39898;SDS011;25571;47.876;10.642;2023-05-24T11:22:21;6.55;;;5.00;;
39898;SDS011;25571;47.876;10.642;2023-05-24T11:24:49;8.05;;;5.07;;
39898;SDS011;25571;47.876;10.642;2023-05-24T11:27:17;7.90;;;5.50;;
39898;SDS011;25571;47.876;10.642;2023-05-24T11:29:43;9.95;;;6.72;;
39898;SDS011;25571;47.876;10.642;2023-05-24T11:32:13;7.22;;;5.70;;
39898;SDS011;25571;47.876;10.642;2023-05-24T11:34:40;9.10;;;5.57;;
39898;SDS011;25571;47.876;10.642;2023-05-24T11:37:09;10.68;;;7.30;;
39898;SDS011;25571;47.876;10.642;2023-05-24T11:39:36;12.63;;;6.47;;
39898;SDS011;25571;47.876;10.642;2023-05-24T11:42:05;8.85;;;5.32;;
39898;SDS011;25571;47.876;10.642;2023-05-24T11:44:32;7.60;;;5.43;;
39898;SDS011;25571;47.876;10.642;2023-05-24T11:47:02;8.18;;;5.22;;
39898;SDS011;25571;47.876;10.642;2023-05-24T11:49:30;7.93;;;5.40;;
39898;SDS011;25571;47.876;10.642;2023-05-24T11:51:56;8.95;;;5.40;;
39898;SDS011;25571;47.876;10.642;2023-05-24T11:54:25;8.40;;;5.20;;
39898;SDS011;25571;47.876;10.642;2023-05-24T11:56:52;9.98;;;5.55;;
39898;SDS011;25571;47.876;10.642;2023-05-24T11:59:23;7.35;;;5.28;;
39898;SDS011;25571;47.876;10.642;2023-05-24T12:01:55;7.78;;;5.35;;
39898;SDS011;25571;47.876;10.642;2023-05-24T12:04:28;11.32;;;5.88;;
39898;SDS011;25571;47.876;10.642;2023-05-24T12:06:55;11.50;;;5.80;;
39898;SDS011;25571;47.876;10.642;2023-05-24T12:09:21;6.82;;;4.63;;
39898;SDS011;25571;47.876;10.642;2023-05-24T12:11:47;8.50;;;5.38;;
39898;SDS011;25571;47.876;10.642;2023-05-24T12:14:27;9.27;;;5.38;;
39898;SDS011;25571;47.876;10.642;2023-05-24T12:16:56;7.72;;;5.32;;
39898;SDS011;25571;47.876;10.642;2023-05-24T12:19:23;13.00;;;5.93;;
39898;SDS011;25571;47.876;10.642;2023-05-24T12:21:54;9.18;;;6.32;;
39898;SDS011;25571;47.876;10.642;2023-05-24T12:24:21;9.18;;;5.30;;
39898;SDS011;25571;47.876;10.642;2023-05-24T12:26:48;7.55;;;5.53;;
39898;SDS011;25571;47.876;10.642;2023-05-24T12:29:14;7.47;;;5.18;;
39898;SDS011;25571;47.876;10.642;2023-05-24T12:31:42;8.75;;;5.55;;
39898;SDS011;25571;47.876;10.642;2023-05-24T12:34:10;12.35;;;6.00;;
39898;SDS011;25571;47.876;10.642;2023-05-24T12:36:45;6.93;;;4.90;;
39898;SDS011;25571;47.876;10.642;2023-05-24T12:39:21;7.90;;;5.25;;
39898;SDS011;25571;47.876;10.642;2023-05-24T12:41:51;9.65;;;5.25;;
39898;SDS011;25571;47.876;10.642;2023-05-24T12:44:24;11.38;;;5.93;;
39898;SDS011;25571;47.876;10.642;2023-05-24T12:46:52;18.67;;;10.88;;
39898;SDS011;25571;47.876;10.642;2023-05-24T12:49:19;12.65;;;8.60;;
39898;SDS011;25571;47.876;10.642;2023-05-24T12:51:44;8.98;;;6.25;;
39898;SDS011;25571;47.876;10.642;2023-05-24T12:54:10;9.45;;;6.00;;
39898;SDS011;25571;47.876;10.642;2023-05-24T12:56:35;8.52;;;6.43;;
39898;SDS011;25571;47.876;10.642;2023-05-24T12:59:01;9.63;;;6.00;;
39898;SDS011;25571;47.876;10.642;2023-05-24T13:01:27;11.85;;;7.07;;
39898;SDS011;25571;47.876;10.642;2023-05-24T13:03:53;12.48;;;6.47;;
39898;SDS011;25571;47.876;10.642;2023-05-24T13:06:19;9.50;;;6.18;;
39898;SDS011;25571;47.876;10.642;2023-05-24T13:08:45;12.18;;;5.95;;
39898;SDS011;25571;47.876;10.642;2023-05-24T13:11:10;8.75;;;5.38;;
39898;SDS011;25571;47.876;10.642;2023-05-24T13:13:36;8.48;;;4.82;;
39898;SDS011;25571;47.876;10.642;2023-05-24T13:16:02;7.97;;;5.28;;
39898;SDS011;25571;47.876;10.642;2023-05-24T13:18:31;11.30;;;5.80;;
39898;SDS011;25571;47.876;10.642;2023-05-24T13:20:57;7.75;;;5.72;;
39898;SDS011;25571;47.876;10.642;2023-05-24T13:23:24;11.85;;;6.38;;
39898;SDS011;25571;47.876;10.642;2023-05-24T13:25:51;12.38;;;6.72;;
39898;SDS011;25571;47.876;10.642;2023-05-24T13:28:17;6.20;;;5.60;;
39898;SDS011;25571;47.876;10.642;2023-05-24T13:30:43;7.15;;;5.20;;
39898;SDS011;25571;47.876;10.642;2023-05-24T13:33:08;7.63;;;5.13;;
39898;SDS011;25571;47.876;10.642;2023-05-24T13:35:34;9.00;;;5.97;;
39898;SDS011;25571;47.876;10.642;2023-05-24T13:38:00;7.45;;;5.30;;
39898;SDS011;25571;47.876;10.642;2023-05-24T13:40:25;8.23;;;4.95;;
39898;SDS011;25571;47.876;10.642;2023-05-24T13:42:51;6.38;;;5.45;;
39898;SDS011;25571;47.876;10.642;2023-05-24T13:45:17;8.15;;;6.30;;
39898;SDS011;25571;47.876;10.642;2023-05-24T13:47:43;9.07;;;5.72;;
39898;SDS011;25571;47.876;10.642;2023-05-24T13:50:09;7.50;;;4.63;;
39898;SDS011;25571;47.876;10.642;2023-05-24T13:52:35;8.80;;;5.43;;
39898;SDS011;25571;47.876;10.642;2023-05-24T13:55:03;11.48;;;6.53;;
39898;SDS011;25571;47.876;10.642;2023-05-24T13:59:56;10.70;;;5.75;;
39898;SDS011;25571;47.876;10.642;2023-05-24T14:02:22;9.65;;;7.35;;
39898;SDS011;25571;47.876;10.642;2023-05-24T14:04:48;13.40;;;7.40;;
39898;SDS011;25571;47.876;10.642;2023-05-24T14:07:13;9.43;;;6.43;;
39898;SDS011;25571;47.876;10.642;2023-05-24T14:09:39;8.98;;;6.50;;
39898;SDS011;25571;47.876;10.642;2023-05-24T14:12:06;7.97;;;5.70;;
39898;SDS011;25571;47.876;10.642;2023-05-24T14:14:32;8.80;;;6.10;;
39898;SDS011;25571;47.876;10.642;2023-05-24T14:16:58;10.15;;;6.50;;
39898;SDS011;25571;47.876;10.642;2023-05-24T14:19:23;10.50;;;6.80;;
39898;SDS011;25571;47.876;10.642;2023-05-24T14:21:49;8.98;;;6.25;;
39898;SDS011;25571;47.876;10.642;2023-05-24T14:24:15;8.95;;;5.43;;
39898;SDS011;25571;47.876;10.642;2023-05-24T14:26:40;10.70;;;6.05;;
39898;SDS011;25571;47.876;10.642;2023-05-24T14:29:06;9.30;;;5.85;;
39898;SDS011;25571;47.876;10.642;2023-05-24T14:31:33;11.15;;;6.57;;
39898;SDS011;25571;47.876;10.642;2023-05-24T14:34:05;15.65;;;7.55;;
39898;SDS011;25571;47.876;10.642;2023-05-24T14:36:31;10.20;;;6.82;;
39898;SDS011;25571;47.876;10.642;2023-05-24T14:38:57;12.00;;;7.03;;
39898;SDS011;25571;47.876;10.642;2023-05-24T14:41:23;10.93;;;7.78;;
39898;SDS011;25571;47.876;10.642;2023-05-24T14:43:48;12.60;;;7.00;;
39898;SDS011;25571;47.876;10.642;2023-05-24T14:46:15;10.50;;;5.75;;
39898;SDS011;25571;47.876;10.642;2023-05-24T14:48:40;10.95;;;7.28;;
39898;SDS011;25571;47.876;10.642;2023-05-24T14:51:06;10.10;;;6.43;;
39898;SDS011;25571;47.876;10.642;2023-05-24T14:53:31;11.70;;;6.25;;
39898;SDS011;25571;47.876;10.642;2023-05-24T14:55:57;7.28;;;5.18;;
39898;SDS011;25571;47.876;10.642;2023-05-24T14:58:23;12.98;;;7.43;;